Carmen, Arizona
Current Conditions -  °F | °C
As of 4:54 PM on Thursday 18 Dec 2014 (Local Time) from KOLS Reporting Station
Broken Clouds Broken Clouds  
Wind Chill:   Ceiling: 6000
Heat Index:   Visibility: 10mi
Dew Point:   Wind: 0mph
Humidity: 77%   Direction: NA
Pressure: 30.11"   Gusts: NA
Location:  31.6134°N, 110.959°W
Report Text: KOLS 182354Z AUTO 00000KT 10SM BKN060 09/06 A3011 RMK AO2 SLP171 60012 T00940056 10122 20078 53002
Loading
Personal Weather Stations






























Interactive Weather Map New forecast layout! Learn more

10-Day Weather Forecast

Advertisements
Track Severe Weather on mobile